Time;durP1;ratioP1;P1;durP2;ratioP2;P2;SDS_P1;SDS_P2;PMS_P1;PMS_P2;Temp;Humidity;BMP_temperature;BMP_pressure;BME280_temperature;BME280_humidity;BME280_pressure;Samples;Min_cycle;Max_cycle;Signal;HPM_P1;HPM_P2
2022/07/06 00:00:07;;;;;;;1.95;0.90;;;;;;;16.86;61.04;101135.53;2083909;28;20532;-75
2022/07/06 00:01:11;;;;;;;2.25;1.10;;;;;;;16.84;61.62;101137.75;2074705;28;20399;-75
2022/07/06 00:02:13;;;;;;;2.13;0.90;;;;;;;16.81;61.57;101136.47;2074270;28;20553;-75
2022/07/06 00:03:19;;;;;;;1.90;1.05;;;;;;;16.82;61.40;101145.41;2069054;28;20070;-76
2022/07/06 00:04:21;;;;;;;3.17;1.00;;;;;;;16.77;61.44;101140.91;2088383;28;20049;-75
2022/07/06 00:05:28;;;;;;;2.00;1.00;;;;;;;16.72;61.65;101140.19;2090853;28;20051;-75
2022/07/06 00:06:30;;;;;;;1.45;0.90;;;;;;;16.74;62.00;101136.06;2091140;28;20049;-75
2022/07/06 00:07:34;;;;;;;4.10;1.15;;;;;;;16.77;61.79;101138.19;2073998;28;20427;-75
2022/07/06 00:08:43;;;;;;;3.47;1.08;;;;;;;16.79;61.95;101143.31;2075284;28;20037;-76
2022/07/06 00:09:50;;;;;;;2.28;1.05;;;;;;;16.79;61.75;101135.94;2085639;28;20053;-75
2022/07/06 00:10:52;;;;;;;4.78;1.00;;;;;;;16.75;61.86;101136.84;2096926;28;20044;-76
2022/07/06 00:11:55;;;;;;;3.00;1.10;;;;;;;16.84;61.69;101138.56;2089588;28;20052;-76
2022/07/06 00:12:59;;;;;;;4.22;0.93;;;;;;;16.84;61.63;101135.06;2082484;28;20113;-75
2022/07/06 00:14:02;;;;;;;2.67;0.80;;;;;;;16.83;61.61;101139.66;2075443;28;20050;-75
2022/07/06 00:15:09;;;;;;;2.03;0.90;;;;;;;16.78;62.11;101137.06;2082407;28;20049;-76
2022/07/06 00:16:10;;;;;;;2.30;0.85;;;;;;;16.73;62.12;101128.19;2087548;28;20032;-76
2022/07/06 00:17:15;;;;;;;3.90;1.15;;;;;;;16.66;62.25;101131.34;2081485;28;20045;-75
2022/07/06 00:18:23;;;;;;;1.98;0.90;;;;;;;16.72;62.10;101132.03;2083384;28;20536;-75
2022/07/06 00:19:26;;;;;;;2.95;1.00;;;;;;;16.74;62.07;101141.50;2089575;28;20045;-76
2022/07/06 00:20:36;;;;;;;4.60;1.05;;;;;;;16.79;62.09;101135.94;2083841;28;20053;-76
2022/07/06 00:21:39;;;;;;;1.50;1.08;;;;;;;16.76;62.04;101128.41;2090515;28;20049;-76
2022/07/06 00:22:40;;;;;;;1.98;1.02;;;;;;;16.73;61.94;101134.44;2096237;28;20036;-76
2022/07/06 00:23:42;;;;;;;1.77;0.90;;;;;;;16.74;62.28;101133.34;2073020;28;20157;-75
2022/07/06 00:24:47;;;;;;;4.75;1.00;;;;;;;16.63;62.53;101137.38;2067172;28;20058;-75
2022/07/06 00:25:50;;;;;;;3.50;1.00;;;;;;;16.63;62.61;101137.38;2070514;28;20399;-75
2022/07/06 00:26:53;;;;;;;2.30;0.80;;;;;;;16.59;62.66;101130.97;2072640;28;20068;-75
2022/07/06 00:27:56;;;;;;;2.75;0.90;;;;;;;16.65;62.49;101132.47;2066254;28;20046;-75
2022/07/06 00:28:58;;;;;;;2.70;1.30;;;;;;;16.61;62.67;101129.56;2061915;28;20050;-75
2022/07/06 00:30:01;;;;;;;2.95;1.23;;;;;;;16.64;62.67;101128.13;2073834;28;20046;-75
2022/07/06 00:31:05;;;;;;;3.75;1.10;;;;;;;16.48;62.81;101124.13;2075293;28;20042;-75
2022/07/06 00:32:08;;;;;;;2.72;1.20;;;;;;;16.54;62.64;101123.72;2083405;28;20056;-75
2022/07/06 00:33:10;;;;;;;4.95;1.10;;;;;;;16.59;62.80;101130.97;2072839;28;20493;-75
2022/07/06 00:34:12;;;;;;;2.60;1.20;;;;;;;16.55;62.91;101124.50;2080071;28;20053;-75
2022/07/06 00:35:15;;;;;;;1.92;1.10;;;;;;;16.58;62.58;101129.34;2079761;28;20072;-75
2022/07/06 00:36:17;;;;;;;2.50;1.10;;;;;;;16.55;62.90;101129.94;2082434;28;20057;-75
2022/07/06 00:37:20;;;;;;;2.45;0.93;;;;;;;16.50;62.91;101130.06;2067126;28;20038;-75
2022/07/06 00:38:22;;;;;;;4.22;1.10;;;;;;;16.48;62.86;101121.41;2063327;28;20386;-74
2022/07/06 00:39:28;;;;;;;4.20;1.05;;;;;;;16.46;63.28;101127.16;2089892;28;20523;-75
2022/07/06 00:40:35;;;;;;;3.03;1.10;;;;;;;16.51;63.24;101118.09;2089232;28;20057;-75
2022/07/06 00:41:40;;;;;;;3.65;1.10;;;;;;;16.51;63.10;101124.31;2074336;28;20050;-75
2022/07/06 00:42:44;;;;;;;5.80;1.13;;;;;;;16.47;63.54;101117.91;2083874;28;20033;-73
2022/07/06 00:43:51;;;;;;;4.65;1.40;;;;;;;16.43;63.34;101123.13;2084795;28;20025;-73
2022/07/06 00:44:53;;;;;;;2.25;1.25;;;;;;;16.41;63.52;101117.19;2084486;28;20484;-74
2022/07/06 00:45:57;;;;;;;2.00;1.00;;;;;;;16.49;63.54;101123.84;2081722;28;20508;-74
2022/07/06 00:47:02;;;;;;;2.90;1.10;;;;;;;16.47;63.18;101119.81;2072803;28;20560;-76
2022/07/06 00:48:03;;;;;;;3.75;1.73;;;;;;;16.45;63.37;101118.19;2077637;28;20045;-75
2022/07/06 00:49:05;;;;;;;2.10;0.95;;;;;;;16.44;63.74;101119.31;2098014;28;20044;-74
2022/07/06 00:50:20;;;;;;;1.83;1.10;;;;;;;16.43;63.47;101117.72;2089336;28;20785;-75
2022/07/06 00:51:37;;;;;;;4.63;1.02;;;;;;;16.52;63.21;101120.53;2083215;28;20042;-76
2022/07/06 00:52:39;;;;;;;2.25;1.10;;;;;;;16.45;63.39;101120.09;2087510;28;20116;-75
2022/07/06 00:53:42;;;;;;;1.85;0.90;;;;;;;16.49;63.63;101120.28;2080769;28;20551;-75
2022/07/06 00:54:46;;;;;;;5.68;1.63;;;;;;;16.43;63.75;101117.72;2073868;28;20038;-75
2022/07/06 00:55:49;;;;;;;2.45;1.05;;;;;;;16.36;63.78;101114.63;2081836;28;20589;-72
2022/07/06 00:56:54;;;;;;;3.33;1.10;;;;;;;16.37;63.74;101112.69;2089429;28;20175;-76
2022/07/06 00:57:57;;;;;;;2.08;1.10;;;;;;;16.36;63.47;101122.75;2089260;28;20053;-77
2022/07/06 00:59:02;;;;;;;4.97;1.40;;;;;;;16.34;64.07;101119.53;2089980;28;20685;-77
2022/07/06 01:00:08;;;;;;;1.63;1.05;;;;;;;16.35;64.14;101112.19;2092559;28;20037;-78
2022/07/06 01:01:10;;;;;;;2.22;0.90;;;;;;;16.30;64.41;101110.41;2090483;28;20029;-77
2022/07/06 01:02:12;;;;;;;2.42;1.05;;;;;;;16.34;64.27;101114.09;2076394;28;20460;-77
2022/07/06 01:03:15;;;;;;;3.40;1.20;;;;;;;16.36;63.95;101111.91;2081779;28;20041;-77
2022/07/06 01:04:19;;;;;;;4.00;1.15;;;;;;;16.36;64.16;101105.66;2089352;28;20039;-76
2022/07/06 01:05:26;;;;;;;3.50;1.38;;;;;;;16.32;63.93;101102.75;2073233;28;20046;-76
2022/07/06 01:06:29;;;;;;;2.40;0.98;;;;;;;16.34;64.34;101102.44;2080470;28;20058;-76
2022/07/06 01:07:31;;;;;;;5.57;1.20;;;;;;;16.36;63.96;101106.47;2096975;28;20053;-76
2022/07/06 01:08:33;;;;;;;4.88;1.02;;;;;;;16.36;64.23;101100.22;2081156;28;20453;-77
2022/07/06 01:09:39;;;;;;;5.55;1.40;;;;;;;16.32;64.17;101100.03;2077874;28;20053;-76
2022/07/06 01:10:41;;;;;;;2.72;1.10;;;;;;;16.36;64.17;101103.75;2081838;28;20053;-77
2022/07/06 01:11:44;;;;;;;2.88;1.30;;;;;;;16.32;64.28;101096.50;2081535;28;20053;-75
2022/07/06 01:12:48;;;;;;;4.03;1.20;;;;;;;16.33;64.35;101104.38;2085672;28;20536;-76
2022/07/06 01:13:54;;;;;;;2.67;1.05;;;;;;;16.34;64.71;101100.53;2073845;28;20044;-74
2022/07/06 01:14:56;;;;;;;4.25;1.00;;;;;;;16.38;64.39;101098.81;2081741;28;20037;-75
2022/07/06 01:15:59;;;;;;;3.83;1.30;;;;;;;16.38;64.44;101106.16;2087804;28;20033;-76
2022/07/06 01:17:02;;;;;;;1.50;1.00;;;;;;;16.42;64.57;101102.53;2084141;28;20457;-75
2022/07/06 01:18:04;;;;;;;1.10;1.00;;;;;;;16.42;64.52;101109.84;2090719;28;20091;-76
2022/07/06 01:19:07;;;;;;;1.98;1.05;;;;;;;16.37;64.73;101102.63;2083847;28;20111;-76
2022/07/06 01:20:15;;;;;;;2.33;1.20;;;;;;;16.30;64.67;101106.84;2081566;28;20433;-76
2022/07/06 01:21:21;;;;;;;5.05;1.25;;;;;;;16.35;64.75;101104.03;2082327;28;20045;-76
2022/07/06 01:22:25;;;;;;;3.67;1.48;;;;;;;16.38;64.73;101103.44;2074078;28;20042;-75
2022/07/06 01:23:29;;;;;;;2.65;1.08;;;;;;;16.36;64.63;101101.03;2081232;28;20033;-75
2022/07/06 01:24:34;;;;;;;3.10;1.30;;;;;;;16.34;64.59;101097.81;2081734;28;20551;-74
2022/07/06 01:25:37;;;;;;;2.03;1.00;;;;;;;16.36;64.77;101100.22;2083237;28;20714;-74
2022/07/06 01:26:42;;;;;;;1.77;1.00;;;;;;;16.37;64.65;101099.94;2081697;28;20579;-75
2022/07/06 01:27:44;;;;;;;3.80;1.05;;;;;;;16.32;64.88;101101.94;2080525;28;20057;-73
2022/07/06 01:28:51;;;;;;;3.53;1.52;;;;;;;16.35;64.57;101098.63;2081203;28;20045;-74
2022/07/06 01:29:53;;;;;;;3.85;0.90;;;;;;;16.24;64.81;101100.75;2089511;28;20406;-74
2022/07/06 01:30:55;;;;;;;3.00;1.20;;;;;;;16.22;65.14;101100.25;2081177;28;20489;-74
2022/07/06 01:31:59;;;;;;;3.58;1.35;;;;;;;16.23;65.04;101101.84;2081396;28;20048;-75
2022/07/06 01:33:02;;;;;;;2.67;1.50;;;;;;;16.18;64.97;101094.63;2088901;28;20072;-76
2022/07/06 01:34:04;;;;;;;2.60;1.08;;;;;;;16.17;65.24;101098.44;2081422;28;20497;-75
2022/07/06 01:35:08;;;;;;;1.55;0.85;;;;;;;16.16;65.55;101094.13;2072219;28;20041;-76
2022/07/06 01:36:10;;;;;;;2.30;1.17;;;;;;;16.09;65.39;101095.63;2081582;28;20048;-75
2022/07/06 01:37:15;;;;;;;1.65;1.00;;;;;;;16.17;65.42;101103.06;2080727;28;20045;-75
2022/07/06 01:38:16;;;;;;;4.25;1.38;;;;;;;16.14;65.46;101103.66;2089126;28;20056;-78
2022/07/06 01:39:19;;;;;;;3.28;1.00;;;;;;;16.16;65.21;101098.75;2081015;28;20045;-77
2022/07/06 01:40:24;;;;;;;2.08;1.10;;;;;;;16.12;65.55;101095.03;2078428;28;20041;-77
2022/07/06 01:41:26;;;;;;;5.65;1.00;;;;;;;16.04;65.67;101103.88;2074022;28;20053;-77
2022/07/06 01:42:31;;;;;;;2.85;1.20;;;;;;;16.09;65.77;101096.44;2072117;28;20053;-77
2022/07/06 01:43:33;;;;;;;4.25;1.23;;;;;;;16.11;65.66;101096.13;2066140;28;20038;-77
2022/07/06 01:44:37;;;;;;;3.97;1.15;;;;;;;16.07;65.31;101093.22;2058174;28;20042;-76
2022/07/06 01:45:40;;;;;;;1.88;1.00;;;;;;;16.09;65.50;101099.16;2081103;28;20037;-77
2022/07/06 01:46:44;;;;;;;3.22;1.23;;;;;;;16.06;65.61;101088.91;2069356;28;20042;-77
2022/07/06 01:47:46;;;;;;;4.38;1.30;;;;;;;16.08;65.56;101097.56;2073426;28;20501;-77
2022/07/06 01:48:48;;;;;;;1.42;1.17;;;;;;;16.11;65.47;101096.13;2072226;28;20052;-77
2022/07/06 01:49:53;;;;;;;3.08;1.20;;;;;;;16.09;65.60;101091.00;2072080;28;20056;-76
2022/07/06 01:51:01;;;;;;;1.88;1.25;;;;;;;16.07;65.98;101093.22;2066675;28;20538;-76
2022/07/06 01:52:03;;;;;;;3.85;1.30;;;;;;;16.01;66.14;101094.41;2066866;28;20057;-77
2022/07/06 01:53:06;;;;;;;1.75;1.15;;;;;;;16.08;66.07;101102.16;2071102;28;20042;-77
2022/07/06 01:54:10;;;;;;;1.35;1.05;;;;;;;16.13;65.95;101097.44;2073254;28;20045;-76
2022/07/06 01:55:13;;;;;;;3.00;1.23;;;;;;;16.06;66.17;101098.97;2079195;28;20105;-76
2022/07/06 01:56:19;;;;;;;2.95;1.23;;;;;;;16.09;65.95;101098.34;2072214;28;20081;-77
2022/07/06 01:57:25;;;;;;;3.42;1.30;;;;;;;16.04;66.34;101096.53;2066352;28;20062;-77
2022/07/06 01:58:26;;;;;;;3.95;1.30;;;;;;;16.02;66.15;101095.25;2081913;28;20033;-77
2022/07/06 01:59:32;;;;;;;2.22;1.20;;;;;;;16.04;66.18;101096.53;2088862;28;20057;-77
2022/07/06 02:00:35;;;;;;;4.28;1.13;;;;;;;16.04;66.23;101093.00;2089461;28;20052;-77
2022/07/06 02:01:41;;;;;;;4.38;1.13;;;;;;;16.10;66.05;101091.81;2083044;28;20068;-76
2022/07/06 02:02:43;;;;;;;1.63;1.27;;;;;;;16.05;66.08;101089.22;2074813;28;20053;-76
2022/07/06 02:03:48;;;;;;;4.45;1.38;;;;;;;16.06;66.15;101094.31;2073179;28;20069;-76
2022/07/06 02:04:50;;;;;;;3.25;1.10;;;;;;;16.09;65.92;101090.22;2081640;28;20048;-74
2022/07/06 02:05:54;;;;;;;3.00;1.23;;;;;;;16.01;66.21;101089.00;2072695;28;20512;-74
2022/07/06 02:06:58;;;;;;;3.50;1.20;;;;;;;16.01;66.55;101090.91;2073586;28;20402;-75
2022/07/06 02:08:03;;;;;;;5.53;1.38;;;;;;;15.99;66.49;101092.03;2076995;28;20046;-75
2022/07/06 02:09:08;;;;;;;3.95;1.20;;;;;;;16.06;65.89;101090.81;2081434;28;20034;-76
2022/07/06 02:10:10;;;;;;;3.53;1.10;;;;;;;15.97;66.57;101088.00;2081330;28;20046;-75
2022/07/06 02:11:16;;;;;;;2.42;1.00;;;;;;;15.91;66.84;101094.63;2072618;28;20029;-75
2022/07/06 02:12:21;;;;;;;;;;;;;;;15.93;66.67;101093.22;2079971;28;20049;-76
2022/07/06 02:13:22;;;;;;;2.10;0.98;;;;;;;15.89;66.85;101092.22;2081264;28;19927;-76
2022/07/06 02:14:27;;;;;;;2.72;1.02;;;;;;;15.93;66.83;101092.44;2077606;28;20049;-76
2022/07/06 02:15:31;;;;;;;1.38;0.90;;;;;;;15.99;66.55;101094.72;2085743;28;20051;-76
2022/07/06 02:16:33;;;;;;;1.88;1.15;;;;;;;16.02;66.66;101100.66;2079743;28;20049;-75
2022/07/06 02:17:35;;;;;;;3.53;1.00;;;;;;;16.02;66.22;101100.66;2077906;28;20040;-75
2022/07/06 02:18:40;;;;;;;1.95;1.10;;;;;;;15.99;66.44;101097.44;2072519;28;20042;-76
2022/07/06 02:19:41;;;;;;;3.60;1.15;;;;;;;15.89;67.08;101094.94;2071484;28;20045;-75
2022/07/06 02:20:44;;;;;;;3.90;1.27;;;;;;;15.92;67.12;101090.81;2076023;28;20033;-74
2022/07/06 02:21:47;;;;;;;3.33;1.30;;;;;;;15.92;66.67;101091.63;2088561;28;20713;-74
2022/07/06 02:22:49;;;;;;;5.65;1.42;;;;;;;16.07;66.64;101097.84;2081069;28;20040;-75
2022/07/06 02:23:56;;;;;;;3.70;1.15;;;;;;;16.06;66.32;101091.63;2065153;28;20045;-75
2022/07/06 02:24:58;;;;;;;4.78;1.25;;;;;;;16.14;66.42;101084.66;2073728;28;20041;-77
2022/07/06 02:26:04;;;;;;;2.33;1.40;;;;;;;16.14;66.19;101087.38;2072593;28;20139;-76
2022/07/06 02:27:06;;;;;;;1.80;1.05;;;;;;;16.14;66.44;101081.94;2064229;28;20522;-76
2022/07/06 02:28:08;;;;;;;4.32;1.33;;;;;;;16.15;66.45;101083.56;2058193;28;20042;-76
2022/07/06 02:29:13;;;;;;;4.15;1.38;;;;;;;16.05;66.66;101091.94;2075404;28;20101;-74
2022/07/06 02:30:15;;;;;;;3.40;1.10;;;;;;;16.11;66.86;101093.41;2086326;28;20041;-74
2022/07/06 02:31:18;;;;;;;1.90;1.00;;;;;;;16.14;66.60;101084.66;2081714;28;20037;-76
2022/07/06 02:32:24;;;;;;;4.20;0.90;;;;;;;16.17;66.41;101086.78;2071662;28;20057;-75
2022/07/06 02:33:27;;;;;;;4.70;1.00;;;;;;;16.19;66.47;101090.78;2074309;28;20038;-76
2022/07/06 02:34:30;;;;;;;3.33;1.05;;;;;;;16.20;66.11;101087.00;2080830;28;20037;-75
2022/07/06 02:35:31;;;;;;;3.72;1.17;;;;;;;16.17;66.41;101097.63;2072480;28;20397;-75
2022/07/06 02:36:36;;;;;;;2.92;1.00;;;;;;;16.20;66.73;101091.59;2065206;28;20049;-75
2022/07/06 02:37:38;;;;;;;4.70;1.00;;;;;;;16.23;66.55;101091.00;2081227;28;20037;-74
2022/07/06 02:38:40;;;;;;;2.03;1.00;;;;;;;16.22;66.34;101092.09;2085611;28;20033;-75
2022/07/06 02:39:45;;;;;;;1.77;1.00;;;;;;;16.24;66.44;101091.81;2064642;28;20518;-76
2022/07/06 02:40:53;;;;;;;1.38;0.93;;;;;;;16.22;66.71;101086.69;2073792;28;20440;-75
2022/07/06 02:41:55;;;;;;;1.83;1.00;;;;;;;16.23;66.68;101088.28;2078070;28;20038;-75
2022/07/06 02:42:56;;;;;;;2.80;1.20;;;;;;;16.27;66.36;101092.00;2080660;28;20054;-75
2022/07/06 02:43:58;;;;;;;1.75;0.95;;;;;;;16.25;66.52;101090.69;2073977;28;20406;-75
2022/07/06 02:45:01;;;;;;;2.78;1.02;;;;;;;16.25;66.38;101091.50;2080596;28;20461;-75
2022/07/06 02:46:04;;;;;;;2.05;0.95;;;;;;;16.30;66.14;101094.13;2088776;28;20052;-75
2022/07/06 02:47:09;;;;;;;1.02;0.80;;;;;;;16.29;66.56;101089.78;2080633;28;20033;-75
2022/07/06 02:48:11;;;;;;;4.25;0.90;;;;;;;16.38;66.23;101087.94;2085912;28;20044;-76
2022/07/06 02:49:13;;;;;;;3.35;1.33;;;;;;;16.37;66.00;101096.41;2056473;28;20040;-76
2022/07/06 02:50:15;;;;;;;2.70;0.85;;;;;;;16.38;66.23;101093.38;2055547;28;20038;-76
2022/07/06 02:51:19;;;;;;;3.25;0.90;;;;;;;16.43;66.26;101089.78;2072821;28;20025;-75
2022/07/06 02:52:23;;;;;;;1.23;0.90;;;;;;;16.38;66.20;101095.31;2069884;28;20053;-73
2022/07/06 02:53:25;;;;;;;2.45;0.85;;;;;;;16.36;66.43;101092.06;2071299;28;20092;-74
2022/07/06 02:54:29;;;;;;;2.13;0.82;;;;;;;16.37;66.45;101094.50;2057780;28;20527;-75
2022/07/06 02:55:30;;;;;;;1.70;0.90;;;;;;;16.40;66.26;101101.25;2064550;28;20046;-74
2022/07/06 02:56:33;;;;;;;0.70;0.70;;;;;;;16.39;66.40;101096.91;2059905;28;20049;-74
2022/07/06 02:57:36;;;;;;;1.60;1.05;;;;;;;16.35;66.27;101094.00;2081097;28;20041;-74
2022/07/06 02:58:38;;;;;;;1.25;0.88;;;;;;;16.28;66.36;101099.03;2088869;28;20037;-74
2022/07/06 02:59:40;;;;;;;1.42;0.90;;;;;;;16.34;66.77;101097.03;2064577;28;20046;-74
2022/07/06 03:00:42;;;;;;;2.03;0.90;;;;;;;16.33;66.79;101096.22;2064673;28;20034;-74
2022/07/06 03:01:44;;;;;;;2.78;1.00;;;;;;;16.38;66.53;101096.09;2072813;28;20433;-73
2022/07/06 03:02:47;;;;;;;2.80;0.93;;;;;;;16.42;66.49;101102.53;2075571;28;20038;-73
2022/07/06 03:03:50;;;;;;;4.30;0.90;;;;;;;16.40;66.40;101098.53;2081309;28;20037;-73
2022/07/06 03:04:53;;;;;;;3.47;0.70;;;;;;;16.41;66.36;101098.19;2080264;28;20050;-73
2022/07/06 03:05:55;;;;;;;4.13;0.80;;;;;;;16.42;66.31;101097.13;2075476;28;20405;-73
2022/07/06 03:06:58;;;;;;;2.45;0.85;;;;;;;16.43;66.57;101106.84;2073112;28;20034;-73
2022/07/06 03:08:02;;;;;;;3.72;0.90;;;;;;;16.47;66.24;101095.38;2082496;28;20025;-73
2022/07/06 03:09:06;;;;;;;2.15;0.80;;;;;;;16.45;66.38;101092.97;2080223;28;20029;-74
2022/07/06 03:10:09;;;;;;;2.67;1.00;;;;;;;16.47;66.33;101096.19;2072356;28;20046;-73
2022/07/06 03:11:15;;;;;;;4.32;1.00;;;;;;;16.48;66.21;101091.56;2077475;28;20041;-74
2022/07/06 03:12:20;;;;;;;1.58;0.90;;;;;;;16.42;66.57;101091.69;2073500;28;20042;-73
2022/07/06 03:13:24;;;;;;;1.88;0.80;;;;;;;16.50;66.24;101086.63;2081254;28;20421;-74
2022/07/06 03:14:27;;;;;;;1.52;0.90;;;;;;;16.54;66.11;101090.34;2077950;28;20053;-74
2022/07/06 03:15:28;;;;;;;1.50;1.23;;;;;;;16.60;65.98;101094.56;2072544;28;20038;-75
2022/07/06 03:16:31;;;;;;;3.35;0.82;;;;;;;16.55;66.08;101083.78;2074823;28;20054;-74
2022/07/06 03:17:33;;;;;;;3.00;0.75;;;;;;;16.59;66.55;101082.88;2089958;28;20048;-74
2022/07/06 03:18:35;;;;;;;1.65;0.90;;;;;;;16.60;65.83;101084.50;2096432;28;20045;-74
2022/07/06 03:19:38;;;;;;;2.42;0.88;;;;;;;16.60;65.76;101094.56;2074420;28;20050;-74
2022/07/06 03:20:40;;;;;;;2.50;0.88;;;;;;;16.55;66.06;101081.91;2057810;28;20062;-73
2022/07/06 03:21:48;;;;;;;1.40;0.82;;;;;;;16.57;66.23;101078.88;2058311;28;20047;-74
2022/07/06 03:22:52;;;;;;;3.58;0.80;;;;;;;16.64;65.94;101077.31;2059774;28;20031;-73
2022/07/06 03:23:59;;;;;;;3.63;1.17;;;;;;;16.68;65.68;101080.25;2056822;28;20039;-74
2022/07/06 03:25:04;;;;;;;1.08;0.80;;;;;;;16.68;66.16;101074.81;2067252;28;20073;-74
2022/07/06 03:26:06;;;;;;;0.80;0.70;;;;;;;16.70;65.81;101083.44;2058393;28;20106;-74
2022/07/06 03:27:11;;;;;;;1.33;1.00;;;;;;;16.69;65.45;101079.13;2065114;28;20031;-77
2022/07/06 03:28:15;;;;;;;1.77;0.80;;;;;;;16.70;65.65;101072.59;2079972;28;20430;-76
2022/07/06 03:29:16;;;;;;;2.45;0.90;;;;;;;16.74;66.05;101079.03;2080596;28;20041;-77
2022/07/06 03:30:18;;;;;;;2.60;0.80;;;;;;;16.79;65.62;101068.06;2086155;28;20053;-76
2022/07/06 03:31:28;;;;;;;1.77;0.98;;;;;;;16.87;65.16;101067.34;2074116;28;20045;-74
2022/07/06 03:32:33;;;;;;;1.92;0.90;;;;;;;16.95;65.56;101075.84;2066877;28;20058;-76
2022/07/06 03:33:39;;;;;;;2.92;0.80;;;;;;;16.95;65.24;101073.13;2065266;28;20571;-75
2022/07/06 03:34:44;;;;;;;2.53;0.88;;;;;;;16.96;65.43;101080.16;2082039;28;20057;-75
2022/07/06 03:35:50;;;;;;;3.38;1.02;;;;;;;17.00;65.13;101081.16;2082074;28;20037;-75
2022/07/06 03:36:53;;;;;;;3.08;0.90;;;;;;;17.03;65.16;101080.56;2071473;28;20049;-74
2022/07/06 03:37:54;;;;;;;2.60;1.00;;;;;;;17.01;65.10;101067.25;2061749;28;20457;-75
2022/07/06 03:38:58;;;;;;;2.40;0.93;;;;;;;16.99;65.09;101074.94;2073204;28;20045;-75
2022/07/06 03:40:00;;;;;;;2.22;0.90;;;;;;;17.01;65.29;101080.06;2080173;28;20029;-75
2022/07/06 03:41:02;;;;;;;2.45;0.90;;;;;;;17.03;65.44;101080.56;2071905;28;20046;-75
2022/07/06 03:42:07;;;;;;;3.33;0.90;;;;;;;17.09;65.16;101073.88;2064787;28;20057;-75
2022/07/06 03:43:10;;;;;;;2.20;0.80;;;;;;;17.17;64.99;101073.13;2071769;28;20128;-75
2022/07/06 03:44:13;;;;;;;3.22;0.82;;;;;;;17.21;65.29;101070.59;2080896;28;20060;-75
2022/07/06 03:45:15;;;;;;;1.58;0.70;;;;;;;17.22;65.02;101073.00;2072775;28;20033;-76
2022/07/06 03:46:19;;;;;;;2.67;0.90;;;;;;;17.29;64.71;101076.06;2072018;28;20046;-73
2022/07/06 03:47:21;;;;;;;4.10;0.80;;;;;;;17.45;64.63;101075.69;2064711;28;20042;-74
2022/07/06 03:48:23;;;;;;;1.83;0.80;;;;;;;17.60;64.17;101078.00;2065304;28;20046;-73
2022/07/06 03:49:29;;;;;;;1.95;0.70;;;;;;;17.51;64.21;101072.50;2073519;28;20045;-73
2022/07/06 03:50:33;;;;;;;5.25;0.90;;;;;;;17.52;64.38;101071.38;2058054;28;20089;-73
2022/07/06 03:51:37;;;;;;;4.32;0.80;;;;;;;17.52;64.67;101071.38;2064737;28;20046;-75
2022/07/06 03:52:43;;;;;;;2.45;1.13;;;;;;;17.55;64.33;101068.06;2077164;28;20050;-74
2022/07/06 03:53:46;;;;;;;6.68;1.80;;;;;;;17.52;64.54;101078.75;2081260;28;20037;-73
2022/07/06 03:54:51;;;;;;;3.22;0.90;;;;;;;17.45;64.70;101068.31;2082926;28;20394;-74
2022/07/06 03:57:21;;;;;;;2.88;0.90;;;;;;;17.47;64.81;101068.81;2086592;28;20036;-74
2022/07/06 03:58:24;;;;;;;5.43;1.42;;;;;;;17.41;64.88;101074.72;2084062;28;20897;-75
2022/07/06 03:59:29;;;;;;;2.97;0.80;;;;;;;17.40;65.18;101075.81;2083378;28;20038;-75
2022/07/06 04:00:30;;;;;;;5.07;1.00;;;;;;;17.37;65.51;101075.34;2081962;28;20037;-74
2022/07/06 04:01:38;;;;;;;7.45;1.02;;;;;;;17.36;65.71;101079.16;2081351;28;20045;-75
2022/07/06 04:02:41;;;;;;;3.67;1.00;;;;;;;17.43;65.40;101083.34;2072146;28;20469;-77
2022/07/06 04:03:50;;;;;;;5.82;0.98;;;;;;;17.40;65.45;101078.53;2073435;28;20053;-76
2022/07/06 04:04:54;;;;;;;2.08;0.95;;;;;;;17.35;65.63;101077.56;2072075;28;20045;-74
2022/07/06 04:05:58;;;;;;;2.45;0.90;;;;;;;17.37;65.70;101071.81;2077216;28;20076;-75
2022/07/06 04:07:00;;;;;;;3.60;0.90;;;;;;;17.36;65.86;101079.16;2073126;28;20041;-75
2022/07/06 04:08:08;;;;;;;6.45;1.42;;;;;;;17.37;66.04;101077.25;2080169;28;20049;-75
2022/07/06 04:09:18;;;;;;;2.58;0.88;;;;;;;17.42;65.81;101070.88;2077582;28;20054;-74
2022/07/06 04:10:22;;;;;;;5.28;1.30;;;;;;;17.48;65.55;101080.50;2079680;28;20060;-73
2022/07/06 04:11:24;;;;;;;1.75;0.80;;;;;;;17.56;65.66;101077.03;2080049;28;20062;-74
2022/07/06 04:12:27;;;;;;;4.00;0.90;;;;;;;17.63;65.44;101071.13;2076277;28;20398;-74
2022/07/06 04:13:29;;;;;;;6.93;1.92;;;;;;;17.85;64.95;101078.47;2071353;28;20061;-76
2022/07/06 04:14:31;;;;;;;2.92;1.02;;;;;;;18.15;64.48;101077.56;2073003;28;20581;-77
2022/07/06 04:15:33;;;;;;;1.40;0.80;;;;;;;18.46;64.03;101082.13;2069089;28;20048;-75
2022/07/06 04:16:38;;;;;;;3.35;0.90;;;;;;;18.60;63.30;101066.44;2072088;28;20042;-76
2022/07/06 04:17:51;;;;;;;1.20;0.80;;;;;;;18.82;63.10;101070.13;2068503;28;20041;-76
2022/07/06 04:18:55;;;;;;;2.80;0.80;;;;;;;18.85;62.77;101066.75;2081937;28;20048;-76
2022/07/06 04:20:01;;;;;;;3.28;0.93;;;;;;;18.79;63.08;101068.03;2081222;28;20049;-77
2022/07/06 04:21:03;;;;;;;3.95;1.23;;;;;;;18.71;62.81;101073.16;2081129;28;20493;-75
2022/07/06 04:22:08;;;;;;;2.08;0.90;;;;;;;18.66;63.02;101076.06;2064629;28;20042;-76
2022/07/06 04:23:12;;;;;;;3.03;1.10;;;;;;;18.57;62.96;101071.69;2055903;28;20047;-77
2022/07/06 04:24:20;;;;;;;2.47;0.90;;;;;;;18.52;62.99;101059.84;2057916;28;20051;-78
2022/07/06 04:25:24;;;;;;;2.85;0.80;;;;;;;18.52;62.99;101062.56;2066407;28;20042;-78
2022/07/06 04:26:30;;;;;;;4.88;1.02;;;;;;;18.52;63.10;101059.84;2071641;28;20288;-75
2022/07/06 04:27:36;;;;;;;3.17;0.90;;;;;;;18.46;63.34;101060.31;2079555;28;20112;-76
2022/07/06 04:28:43;;;;;;;1.98;1.10;;;;;;;18.42;63.34;101062.91;2084173;28;20370;-76
2022/07/06 04:29:44;;;;;;;4.57;0.90;;;;;;;18.36;63.44;101066.09;2077434;28;20049;-76
2022/07/06 04:30:49;;;;;;;3.83;0.80;;;;;;;18.35;63.73;101065.28;2063932;28;20058;-75
2022/07/06 04:31:53;;;;;;;1.00;0.80;;;;;;;18.36;63.62;101066.09;2063960;28;20045;-75
2022/07/06 04:32:55;;;;;;;6.78;1.40;;;;;;;18.37;63.74;101065.75;2079581;28;20033;-74
2022/07/06 04:34:01;;;;;;;3.30;0.90;;;;;;;18.40;63.99;101062.41;2078915;28;20049;-75
2022/07/06 04:35:06;;;;;;;3.17;0.80;;;;;;;18.73;63.37;101061.97;2072625;28;20065;-76
2022/07/06 04:36:10;;;;;;;8.27;1.05;;;;;;;19.11;62.56;101059.38;2086346;28;20087;-76
2022/07/06 04:37:16;;;;;;;4.82;1.00;;;;;;;19.39;61.56;101072.63;2083850;28;20088;-77
2022/07/06 04:38:18;;;;;;;7.60;0.90;;;;;;;19.63;61.04;101067.38;2062662;28;20054;-77
2022/07/06 04:39:23;;;;;;;3.38;1.20;;;;;;;19.84;60.22;101070.22;2059711;28;20066;-76
2022/07/06 04:40:27;;;;;;;6.53;1.13;;;;;;;19.68;60.22;101066.44;2056110;28;20503;-76
2022/07/06 04:41:33;;;;;;;2.05;1.00;;;;;;;19.49;60.73;101074.97;2064670;28;20043;-75
2022/07/06 04:42:37;;;;;;;3.38;0.90;;;;;;;19.35;60.86;101071.66;2072656;28;20045;-76
2022/07/06 04:43:43;;;;;;;4.28;0.80;;;;;;;19.24;61.30;101068.47;2074145;28;20375;-77
2022/07/06 04:44:49;;;;;;;3.10;1.00;;;;;;;19.14;61.18;101064.16;2081927;28;20547;-78
2022/07/06 04:45:54;;;;;;;3.58;1.20;;;;;;;19.14;61.03;101064.16;2081643;28;20037;-77
2022/07/06 04:46:58;;;;;;;4.20;0.90;;;;;;;19.12;61.75;101065.63;2074384;28;20525;-78
2022/07/06 04:47:59;;;;;;;5.35;0.90;;;;;;;19.31;60.93;101070.69;2082224;28;20441;-78
2022/07/06 04:49:02;;;;;;;8.07;1.20;;;;;;;19.56;60.73;101069.81;2065194;28;20112;-78
2022/07/06 04:50:07;;;;;;;4.80;1.00;;;;;;;19.80;60.31;101071.22;2050278;28;20043;-78
2022/07/06 04:51:10;;;;;;;3.05;0.80;;;;;;;19.97;60.06;101062.91;2064413;28;20706;-78
2022/07/06 04:52:15;;;;;;;5.18;1.20;;;;;;;20.11;59.35;101057.22;2082825;28;20053;-78
2022/07/06 04:53:16;;;;;;;3.05;0.93;;;;;;;20.21;59.11;101062.31;2071991;28;20053;-78
2022/07/06 04:54:19;;;;;;;6.22;0.95;;;;;;;20.35;58.66;101062.84;2070119;28;20050;-76
2022/07/06 04:55:23;;;;;;;1.63;0.80;;;;;;;20.43;58.12;101054.91;2079271;28;20073;-78
2022/07/06 04:56:31;;;;;;;7.72;1.35;;;;;;;20.51;58.02;101060.34;2072458;28;20072;-78
2022/07/06 04:57:35;;;;;;;2.47;0.90;;;;;;;20.63;57.91;101056.88;2079536;28;20187;-78